createdAt,value
2023-05-08T00:00:14.050Z,53.66
2023-05-08T00:01:14.148Z,54.46
2023-05-08T00:02:13.879Z,56.24
2023-05-08T00:03:13.971Z,53.98
2023-05-08T00:04:13.990Z,53.66
2023-05-08T00:05:13.845Z,57.04
2023-05-08T00:06:13.815Z,53.66
2023-05-08T00:07:13.844Z,55.75
2023-05-08T00:08:13.789Z,54.14
2023-05-08T00:09:13.824Z,54.62
2023-05-08T00:10:14.018Z,53.82
2023-05-08T00:11:13.766Z,54.30
2023-05-08T00:12:13.773Z,54.62
2023-05-08T00:13:13.829Z,53.50
2023-05-08T00:14:13.746Z,53.98
2023-05-08T00:15:13.771Z,53.66
2023-05-08T00:16:13.730Z,54.30
2023-05-08T00:17:13.736Z,53.82
2023-05-08T00:18:13.690Z,60.75
2023-05-08T00:19:13.779Z,53.98
2023-05-08T00:20:13.876Z,53.98
2023-05-08T00:21:13.691Z,53.82
2023-05-08T00:22:13.682Z,56.40
2023-05-08T00:23:13.685Z,57.20
2023-05-08T00:24:13.663Z,60.10
2023-05-08T00:25:13.732Z,54.46
2023-05-08T00:26:13.664Z,54.14
2023-05-08T00:27:13.684Z,55.59
2023-05-08T00:28:13.675Z,53.82
2023-05-08T00:29:13.645Z,53.98
2023-05-08T00:30:13.830Z,55.43
2023-05-08T00:31:13.670Z,53.98
2023-05-08T00:32:13.655Z,53.82
2023-05-08T00:33:13.648Z,54.46
2023-05-08T00:34:13.578Z,53.98
2023-05-08T00:35:13.584Z,53.98
2023-05-08T00:36:13.598Z,54.14
2023-05-08T00:37:13.816Z,54.46
2023-05-08T00:38:13.554Z,63.16
2023-05-08T00:39:13.548Z,53.82
2023-05-08T00:40:13.601Z,53.82
2023-05-08T00:41:13.533Z,53.66
2023-05-08T00:42:13.538Z,54.46
2023-05-08T00:43:13.580Z,53.98
2023-05-08T00:44:13.489Z,53.98
2023-05-08T00:45:13.506Z,59.14
2023-05-08T00:46:13.521Z,54.30
2023-05-08T00:47:13.494Z,54.14
2023-05-08T00:48:13.461Z,64.78
2023-05-08T00:49:13.528Z,54.30
2023-05-08T00:50:13.859Z,58.65
2023-05-08T00:51:13.470Z,58.81
2023-05-08T00:52:13.533Z,56.56
2023-05-08T00:53:13.448Z,53.98
2023-05-08T00:54:13.425Z,54.14
2023-05-08T00:55:13.465Z,53.82
2023-05-08T00:56:13.416Z,54.14
2023-05-08T00:57:13.402Z,53.98
2023-05-08T00:58:13.371Z,55.59
2023-05-08T00:59:13.394Z,59.62
2023-05-08T01:00:13.542Z,54.30
2023-05-08T01:01:13.430Z,54.79
2023-05-08T01:02:13.423Z,56.40
2023-05-08T01:03:13.444Z,55.11
2023-05-08T01:04:13.391Z,55.11
2023-05-08T01:05:13.352Z,53.82
2023-05-08T01:06:13.355Z,54.14
2023-05-08T01:07:13.392Z,53.82
2023-05-08T01:08:13.322Z,54.46
2023-05-08T01:09:13.317Z,53.82
2023-05-08T01:10:13.578Z,54.14
2023-05-08T01:11:13.306Z,54.14
2023-05-08T01:12:13.366Z,56.07
2023-05-08T01:13:13.383Z,53.98
2023-05-08T01:14:13.310Z,57.04
2023-05-08T01:15:13.274Z,56.40
2023-05-08T01:16:13.337Z,57.20
2023-05-08T01:17:13.272Z,55.59
2023-05-08T01:18:13.264Z,54.46
2023-05-08T01:19:13.345Z,54.79
2023-05-08T01:20:13.472Z,54.62
2023-05-08T01:21:13.225Z,54.30
2023-05-08T01:22:13.245Z,53.82
2023-05-08T01:23:13.209Z,54.46
2023-05-08T01:24:13.261Z,58.01
2023-05-08T01:25:13.278Z,53.82
2023-05-08T01:26:13.253Z,53.98
2023-05-08T01:27:13.224Z,54.46
2023-05-08T01:28:13.189Z,55.11
2023-05-08T01:29:13.175Z,53.98
2023-05-08T01:30:13.353Z,54.62
2023-05-08T01:31:13.215Z,54.30
2023-05-08T01:32:13.164Z,53.98
2023-05-08T01:33:13.198Z,53.98
2023-05-08T01:34:13.151Z,54.95
2023-05-08T01:35:13.132Z,54.62
2023-05-08T01:36:13.111Z,54.14
2023-05-08T01:37:13.146Z,54.14
2023-05-08T01:38:13.105Z,54.30
2023-05-08T01:39:13.108Z,60.91
2023-05-08T01:40:13.500Z,54.46
2023-05-08T01:41:13.091Z,54.30
2023-05-08T01:42:13.071Z,54.30
2023-05-08T01:43:13.160Z,54.30
2023-05-08T01:44:13.048Z,54.62
2023-05-08T01:45:13.065Z,54.30
2023-05-08T01:46:13.077Z,56.07
2023-05-08T01:47:13.017Z,53.98
2023-05-08T01:48:13.012Z,59.30
2023-05-08T01:49:13.040Z,56.07
2023-05-08T01:50:13.179Z,61.87
2023-05-08T01:51:12.991Z,54.62
2023-05-08T01:52:13.012Z,54.14
2023-05-08T01:53:13.002Z,53.98
2023-05-08T01:54:12.978Z,54.46
2023-05-08T01:55:13.088Z,54.30
2023-05-08T01:56:12.985Z,54.46
2023-05-08T01:57:12.955Z,54.30
2023-05-08T01:58:12.956Z,54.62
2023-05-08T01:59:12.937Z,54.30
2023-05-08T02:00:13.158Z,54.46
2023-05-08T02:01:12.991Z,54.79
2023-05-08T02:02:12.951Z,57.20
2023-05-08T02:03:12.931Z,57.04
2023-05-08T02:04:13.002Z,60.10
2023-05-08T02:05:12.898Z,54.14
2023-05-08T02:06:12.913Z,54.14
2023-05-08T02:07:12.951Z,55.11
2023-05-08T02:08:12.873Z,56.24
2023-05-08T02:09:12.870Z,57.20
2023-05-08T02:10:13.061Z,63.81
2023-05-08T02:11:12.857Z,61.71
2023-05-08T02:12:12.837Z,54.46
2023-05-08T02:13:12.930Z,54.30
2023-05-08T02:14:12.827Z,54.95
2023-05-08T02:15:12.810Z,57.52
2023-05-08T02:16:12.837Z,57.85
2023-05-08T02:17:12.815Z,55.59
2023-05-08T02:18:12.779Z,61.07
2023-05-08T02:19:12.830Z,65.58
2023-05-08T02:20:12.956Z,54.95
2023-05-08T02:21:12.775Z,54.62
2023-05-08T02:22:12.765Z,54.79
2023-05-08T02:23:12.771Z,55.27
2023-05-08T02:24:12.745Z,56.40
2023-05-08T02:25:12.798Z,56.24
2023-05-08T02:26:12.731Z,62.04
2023-05-08T02:27:12.709Z,68.96
2023-05-08T02:28:12.702Z,75.57
2023-05-08T02:29:12.703Z,81.05
2023-05-08T02:30:12.937Z,74.28
2023-05-08T02:31:12.767Z,55.11
2023-05-08T02:32:12.898Z,72.35
2023-05-08T02:33:12.757Z,75.09
2023-05-08T02:34:12.679Z,72.51
2023-05-08T02:35:12.670Z,80.89
2023-05-08T02:36:12.668Z,78.31
2023-05-08T02:37:12.686Z,80.08
2023-05-08T02:38:12.657Z,79.60
2023-05-08T02:39:12.635Z,75.41
2023-05-08T02:40:12.833Z,79.28
2023-05-08T02:41:12.607Z,78.96
2023-05-08T02:42:12.617Z,68.48
2023-05-08T02:43:12.848Z,79.12
2023-05-08T02:44:12.606Z,81.37
2023-05-08T02:45:12.576Z,81.05
2023-05-08T02:46:12.740Z,83.95
2023-05-08T02:47:12.591Z,81.37
2023-05-08T02:48:12.560Z,60.10
2023-05-08T02:49:12.604Z,60.42
2023-05-08T02:50:12.684Z,61.07
2023-05-08T02:51:12.532Z,60.59
2023-05-08T02:52:12.545Z,62.52
2023-05-08T02:53:12.547Z,61.87
2023-05-08T02:54:12.524Z,65.58
2023-05-08T02:55:12.563Z,58.65
2023-05-08T02:56:12.532Z,59.46
2023-05-08T02:57:12.494Z,60.75
2023-05-08T02:58:12.519Z,61.71
2023-05-08T02:59:12.482Z,61.39
2023-05-08T03:00:12.704Z,57.52
2023-05-08T03:01:12.540Z,58.17
2023-05-08T03:02:12.449Z,60.75
2023-05-08T03:03:12.525Z,60.59
2023-05-08T03:04:12.445Z,62.84
2023-05-08T03:05:12.444Z,61.71
2023-05-08T03:06:12.415Z,60.26
2023-05-08T03:07:12.471Z,60.42
2023-05-08T03:08:12.396Z,58.49
2023-05-08T03:09:12.392Z,58.97
2023-05-08T03:10:12.553Z,62.68
2023-05-08T03:11:12.396Z,59.62
2023-05-08T03:12:12.370Z,61.07
2023-05-08T03:13:12.466Z,60.91
2023-05-08T03:14:12.370Z,60.91
2023-05-08T03:15:12.354Z,60.59
2023-05-08T03:16:12.364Z,59.94
2023-05-08T03:17:12.329Z,61.23
2023-05-08T03:18:12.320Z,60.91
2023-05-08T03:19:12.366Z,59.94
2023-05-08T03:20:12.502Z,65.90
2023-05-08T03:21:12.335Z,58.49
2023-05-08T03:22:12.299Z,58.17
2023-05-08T03:23:12.330Z,57.36
2023-05-08T03:24:12.279Z,58.01
2023-05-08T03:25:12.337Z,58.65
2023-05-08T03:26:12.325Z,61.23
2023-05-08T03:27:12.284Z,58.65
2023-05-08T03:28:12.241Z,68.96
2023-05-08T03:29:12.255Z,56.07
2023-05-08T03:30:12.356Z,64.45
2023-05-08T03:31:12.278Z,65.90
2023-05-08T03:32:12.216Z,67.68
2023-05-08T03:33:12.209Z,65.74
2023-05-08T03:34:12.227Z,67.68
2023-05-08T03:35:12.210Z,66.06
2023-05-08T03:36:12.230Z,68.80
2023-05-08T03:37:12.232Z,68.80
2023-05-08T03:38:12.182Z,68.48
2023-05-08T03:39:12.167Z,67.03
2023-05-08T03:40:12.348Z,64.78
2023-05-08T03:41:12.171Z,63.81
2023-05-08T03:42:12.149Z,62.84
2023-05-08T03:43:12.479Z,64.78
2023-05-08T03:44:12.147Z,65.90
2023-05-08T03:45:12.130Z,64.78
2023-05-08T03:46:12.181Z,62.36
2023-05-08T03:47:12.160Z,64.61
2023-05-08T03:48:12.128Z,63.33
2023-05-08T03:49:12.141Z,60.26
2023-05-08T03:50:12.381Z,58.17
2023-05-08T03:51:12.093Z,60.75
2023-05-08T03:52:12.071Z,62.84
2023-05-08T03:53:12.149Z,57.20
2023-05-08T03:54:12.069Z,56.07
2023-05-08T03:55:12.110Z,60.10
2023-05-08T03:56:12.040Z,59.14
2023-05-08T03:57:12.031Z,64.94
2023-05-08T03:58:12.032Z,60.75
2023-05-08T03:59:12.016Z,67.51
2023-05-08T04:00:12.292Z,58.97
2023-05-08T04:01:12.064Z,68.32
2023-05-08T04:02:12.040Z,64.13
2023-05-08T04:03:12.034Z,64.94
2023-05-08T04:04:12.010Z,64.13
2023-05-08T04:05:11.984Z,60.75
2023-05-08T04:06:11.997Z,69.61
2023-05-08T04:07:12.018Z,62.20
2023-05-08T04:08:11.956Z,63.49
2023-05-08T04:09:11.959Z,61.55
2023-05-08T04:10:12.257Z,58.97
2023-05-08T04:11:11.933Z,60.75
2023-05-08T04:12:11.913Z,61.71
2023-05-08T04:13:11.980Z,73.64
2023-05-08T04:14:11.902Z,63.65
2023-05-08T04:15:11.985Z,63.33
2023-05-08T04:16:11.917Z,59.62
2023-05-08T04:17:11.895Z,57.69
2023-05-08T04:18:11.910Z,63.33
2023-05-08T04:19:11.907Z,57.04
2023-05-08T04:20:11.869Z,63.49
2023-05-08T04:21:11.891Z,58.49
2023-05-08T04:22:11.850Z,64.78
2023-05-08T04:23:11.853Z,64.29
2023-05-08T04:24:11.841Z,57.04
2023-05-08T04:25:12.107Z,62.68
2023-05-08T04:26:11.813Z,59.62
2023-05-08T04:27:11.831Z,58.17
2023-05-08T04:28:11.821Z,59.78
2023-05-08T04:29:11.793Z,66.06
2023-05-08T04:30:11.818Z,72.35
2023-05-08T04:31:11.852Z,60.59
2023-05-08T04:32:11.857Z,62.84
2023-05-08T04:33:11.837Z,57.04
2023-05-08T04:34:11.757Z,60.42
2023-05-08T04:35:11.943Z,61.87
2023-05-08T04:36:11.740Z,62.20
2023-05-08T04:37:11.818Z,59.30
2023-05-08T04:38:11.738Z,69.93
2023-05-08T04:39:11.740Z,60.59
2023-05-08T04:40:11.742Z,60.59
2023-05-08T04:41:11.746Z,61.87
2023-05-08T04:42:11.710Z,58.65
2023-05-08T04:43:11.746Z,59.62
2023-05-08T04:44:11.701Z,61.55
2023-05-08T04:45:12.036Z,57.20
2023-05-08T04:46:11.712Z,59.30
2023-05-08T04:47:11.662Z,60.59
2023-05-08T04:48:11.680Z,58.17
2023-05-08T04:49:12.158Z,59.46
2023-05-08T04:50:11.650Z,58.17
2023-05-08T04:51:11.632Z,59.62
2023-05-08T04:52:11.625Z,65.10
2023-05-08T04:53:11.625Z,55.75
2023-05-08T04:54:11.630Z,60.10
2023-05-08T04:55:11.843Z,61.07
2023-05-08T04:56:11.608Z,63.97
2023-05-08T04:57:11.601Z,61.87
2023-05-08T04:58:11.588Z,61.07
2023-05-08T04:59:11.669Z,70.58
2023-05-08T05:00:11.573Z,62.36
2023-05-08T05:01:11.663Z,62.36
2023-05-08T05:02:11.559Z,64.61
2023-05-08T05:03:11.732Z,72.67
2023-05-08T05:04:11.647Z,77.34
2023-05-08T05:05:11.843Z,72.99
2023-05-08T05:06:11.514Z,72.35
2023-05-08T05:07:11.589Z,75.09
2023-05-08T05:08:11.511Z,73.48
2023-05-08T05:09:11.505Z,65.42
2023-05-08T05:10:11.529Z,61.23
2023-05-08T05:11:11.491Z,65.90
2023-05-08T05:12:11.479Z,61.39
2023-05-08T05:13:11.591Z,59.62
2023-05-08T05:14:11.468Z,64.78
2023-05-08T05:15:11.676Z,57.36
2023-05-08T05:16:11.521Z,60.42
2023-05-08T05:17:11.441Z,61.23
2023-05-08T05:18:11.520Z,60.91
2023-05-08T05:19:12.327Z,62.04
2023-05-08T05:20:11.423Z,61.87
2023-05-08T05:21:11.416Z,61.23
2023-05-08T05:22:11.400Z,70.09
2023-05-08T05:23:11.400Z,63.16
2023-05-08T05:24:11.388Z,67.68
2023-05-08T05:25:11.782Z,63.49
2023-05-08T05:26:11.402Z,61.71
2023-05-08T05:27:11.353Z,63.65
2023-05-08T05:28:11.381Z,64.45
2023-05-08T05:29:11.364Z,68.96
2023-05-08T05:30:11.564Z,62.84
2023-05-08T05:31:11.522Z,63.00
2023-05-08T05:32:11.325Z,62.52
2023-05-08T05:33:11.330Z,65.10
2023-05-08T05:34:11.300Z,63.16
2023-05-08T05:35:11.489Z,62.36
2023-05-08T05:36:11.305Z,76.22
2023-05-08T05:37:11.342Z,62.52
2023-05-08T05:38:11.284Z,63.00
2023-05-08T05:39:11.295Z,63.49
2023-05-08T05:40:11.286Z,65.90
2023-05-08T05:41:11.274Z,62.84
2023-05-08T05:42:11.268Z,73.32
2023-05-08T05:43:11.300Z,74.12
2023-05-08T05:44:11.248Z,71.87
2023-05-08T05:45:11.464Z,79.60
2023-05-08T05:46:11.226Z,84.43
2023-05-08T05:47:11.384Z,64.94
2023-05-08T05:48:11.237Z,68.32
2023-05-08T05:49:11.642Z,82.82
2023-05-08T05:50:11.350Z,80.41
2023-05-08T05:51:11.212Z,76.22
2023-05-08T05:52:11.162Z,78.31
2023-05-08T05:53:11.160Z,78.96
2023-05-08T05:54:11.159Z,73.32
2023-05-08T05:55:11.473Z,79.44
2023-05-08T05:56:11.142Z,77.18
2023-05-08T05:57:11.177Z,75.41
2023-05-08T05:58:11.138Z,73.96
2023-05-08T05:59:11.141Z,70.58
2023-05-08T06:00:11.120Z,70.58
2023-05-08T06:01:11.164Z,73.32
2023-05-08T06:02:11.148Z,72.83
2023-05-08T06:03:11.181Z,72.83
2023-05-08T06:04:11.189Z,72.83
2023-05-08T06:05:11.360Z,73.32
2023-05-08T06:06:11.088Z,78.15
2023-05-08T06:07:11.118Z,75.57
2023-05-08T06:08:11.060Z,75.41
2023-05-08T06:09:11.062Z,71.54
2023-05-08T06:10:11.083Z,70.90
2023-05-08T06:11:11.053Z,68.32
2023-05-08T06:12:11.030Z,61.39
2023-05-08T06:13:11.175Z,69.93
2023-05-08T06:14:11.023Z,62.52
2023-05-08T06:15:11.346Z,72.19
2023-05-08T06:16:11.014Z,64.61
2023-05-08T06:17:11.107Z,69.61
2023-05-08T06:18:11.022Z,71.06
2023-05-08T06:19:11.042Z,63.16
2023-05-08T06:20:10.993Z,71.70
2023-05-08T06:21:10.949Z,63.16
2023-05-08T06:22:10.973Z,70.42
2023-05-08T06:23:10.939Z,61.23
2023-05-08T06:24:10.952Z,61.23
2023-05-08T06:25:11.213Z,62.04
2023-05-08T06:26:10.942Z,61.07
2023-05-08T06:27:10.939Z,65.74
2023-05-08T06:28:10.950Z,59.94
2023-05-08T06:29:10.916Z,60.10
2023-05-08T06:30:10.985Z,68.48
2023-05-08T06:31:11.026Z,63.49
2023-05-08T06:32:10.881Z,61.87
2023-05-08T06:33:10.902Z,61.87
2023-05-08T06:34:10.901Z,71.06
2023-05-08T06:35:11.085Z,64.29
2023-05-08T06:36:10.882Z,61.07
2023-05-08T06:37:10.914Z,61.39
2023-05-08T06:38:10.831Z,62.68
2023-05-08T06:39:10.846Z,57.36
2023-05-08T06:40:12.515Z,61.07
2023-05-08T06:41:10.835Z,62.52
2023-05-08T06:42:10.816Z,62.52
2023-05-08T06:43:10.844Z,65.58
2023-05-08T06:44:10.792Z,70.42
2023-05-08T06:45:10.947Z,74.60
2023-05-08T06:46:10.825Z,64.94
2023-05-08T06:47:10.797Z,62.36
2023-05-08T06:48:10.818Z,69.29
2023-05-08T06:49:10.851Z,70.42
2023-05-08T06:50:10.763Z,61.07
2023-05-08T06:51:10.752Z,60.26
2023-05-08T06:52:10.750Z,64.13
2023-05-08T06:53:10.739Z,68.96
2023-05-08T06:54:10.725Z,63.65
2023-05-08T06:55:11.147Z,72.83
2023-05-08T06:56:10.724Z,61.71
2023-05-08T06:57:12.008Z,63.97
2023-05-08T06:58:10.699Z,63.65
2023-05-08T06:59:10.694Z,63.81
2023-05-08T07:00:10.711Z,71.87
2023-05-08T07:01:10.735Z,64.78
2023-05-08T07:02:10.715Z,61.71
2023-05-08T07:03:10.685Z,59.14
2023-05-08T07:04:10.681Z,70.58
2023-05-08T07:05:11.085Z,70.09
2023-05-08T07:06:10.640Z,71.87
2023-05-08T07:07:10.685Z,60.75
2023-05-08T07:08:10.638Z,61.07
2023-05-08T07:09:10.624Z,59.14
2023-05-08T07:10:10.600Z,60.42
2023-05-08T07:11:10.632Z,61.71
2023-05-08T07:12:10.606Z,65.42
2023-05-08T07:13:10.697Z,61.71
2023-05-08T07:14:10.584Z,61.23
2023-05-08T07:15:24.018Z,59.62
2023-05-08T07:16:11.615Z,61.23
2023-05-08T07:17:10.579Z,72.51
2023-05-08T07:18:10.634Z,61.23
2023-05-08T07:19:10.589Z,59.30
2023-05-08T07:20:10.556Z,61.39
2023-05-08T07:21:10.528Z,61.87
2023-05-08T07:22:10.560Z,60.59
2023-05-08T07:23:10.511Z,59.94
2023-05-08T07:24:10.513Z,59.94
2023-05-08T07:25:10.802Z,61.39
2023-05-08T07:26:10.504Z,60.75
2023-05-08T07:27:10.538Z,70.09
2023-05-08T07:28:10.480Z,62.68
2023-05-08T07:29:10.482Z,67.84
2023-05-08T07:30:10.472Z,62.68
2023-05-08T07:31:10.532Z,59.46
2023-05-08T07:32:10.462Z,70.42
2023-05-08T07:33:10.454Z,75.89
2023-05-08T07:34:10.456Z,60.42
2023-05-08T07:35:11.262Z,61.71
2023-05-08T07:36:10.390Z,61.23
2023-05-08T07:37:10.536Z,61.39
2023-05-08T07:38:10.419Z,57.52
2023-05-08T07:39:10.393Z,66.39
2023-05-08T07:40:10.384Z,61.55
2023-05-08T07:41:10.434Z,69.13
2023-05-08T07:42:10.362Z,77.02
2023-05-08T07:43:10.436Z,81.86
2023-05-08T07:44:10.361Z,82.34
2023-05-08T07:45:10.487Z,78.31
2023-05-08T07:46:10.338Z,84.11
2023-05-08T07:47:10.376Z,81.37
2023-05-08T07:48:10.369Z,80.73
2023-05-08T07:49:10.390Z,82.02
2023-05-08T07:50:10.330Z,81.53
2023-05-08T07:51:10.330Z,78.31
2023-05-08T07:52:10.318Z,79.92
2023-05-08T07:53:10.359Z,75.73
2023-05-08T07:54:10.302Z,71.22
2023-05-08T07:55:10.846Z,68.64
2023-05-08T07:56:10.278Z,72.99
2023-05-08T07:57:10.285Z,75.41
2023-05-08T07:58:10.251Z,80.24
2023-05-08T07:59:10.242Z,80.57
2023-05-08T08:00:10.230Z,71.06
2023-05-08T08:01:10.290Z,68.48
2023-05-08T08:02:10.351Z,73.64
2023-05-08T08:03:10.296Z,78.47
2023-05-08T08:04:10.220Z,79.28
2023-05-08T08:05:10.319Z,72.99
2023-05-08T08:06:10.190Z,79.28
2023-05-08T08:07:10.230Z,77.18
2023-05-08T08:08:10.178Z,76.70
2023-05-08T08:09:10.253Z,67.68
2023-05-08T08:10:10.183Z,83.31
2023-05-08T08:11:10.146Z,92.81
2023-05-08T08:12:10.131Z,69.77
2023-05-08T08:13:10.194Z,69.93
2023-05-08T08:14:10.156Z,73.64
2023-05-08T08:15:10.133Z,77.02
2023-05-08T08:16:10.141Z,77.02
2023-05-08T08:17:10.161Z,80.24
2023-05-08T08:18:10.193Z,80.89
2023-05-08T08:19:10.131Z,81.05
2023-05-08T08:20:10.119Z,79.60
2023-05-08T08:21:10.096Z,81.69
2023-05-08T08:22:10.090Z,77.34
2023-05-08T08:23:10.113Z,91.04
2023-05-08T08:24:10.061Z,94.42
2023-05-08T08:25:10.341Z,75.57
2023-05-08T08:26:10.089Z,72.67
2023-05-08T08:27:10.071Z,67.35
2023-05-08T08:28:10.060Z,67.68
2023-05-08T08:29:10.030Z,68.32
2023-05-08T08:30:17.668Z,62.52
2023-05-08T08:31:11.107Z,75.57
2023-05-08T08:32:09.991Z,58.97
2023-05-08T08:33:10.028Z,57.85
2023-05-08T08:34:09.979Z,58.81
2023-05-08T08:35:09.993Z,60.91
2023-05-08T08:36:09.970Z,63.65
2023-05-08T08:37:10.005Z,61.07
2023-05-08T08:38:09.963Z,59.78
2023-05-08T08:39:12.480Z,57.20
2023-05-08T08:40:10.004Z,68.00
2023-05-08T08:41:10.018Z,60.42
2023-05-08T08:42:09.975Z,64.94
2023-05-08T08:43:09.992Z,70.58
2023-05-08T08:44:09.932Z,62.68
2023-05-08T08:45:09.942Z,61.07
2023-05-08T08:46:09.914Z,65.10
2023-05-08T08:47:09.922Z,67.68
2023-05-08T08:48:09.943Z,72.99
2023-05-08T08:49:09.963Z,65.10
2023-05-08T08:50:11.994Z,65.10
2023-05-08T08:51:09.886Z,63.49
2023-05-08T08:52:09.870Z,61.23
2023-05-08T08:53:09.872Z,60.42
2023-05-08T08:54:09.868Z,62.20
2023-05-08T08:55:09.892Z,58.81
2023-05-08T08:56:09.820Z,60.42
2023-05-08T08:57:09.876Z,61.23
2023-05-08T08:58:09.804Z,62.52
2023-05-08T08:59:09.813Z,62.36
2023-05-08T09:00:09.829Z,58.97
2023-05-08T09:01:10.008Z,61.55
2023-05-08T09:02:09.806Z,63.81
2023-05-08T09:03:09.852Z,62.04
2023-05-08T09:04:09.916Z,63.97
2023-05-08T09:05:09.754Z,63.65
2023-05-08T09:06:09.763Z,61.39
2023-05-08T09:07:09.793Z,61.71
2023-05-08T09:08:09.747Z,58.81
2023-05-08T09:09:09.723Z,60.59
2023-05-08T09:10:09.711Z,57.20
2023-05-08T09:11:09.710Z,57.04
2023-05-08T09:12:09.699Z,61.87
2023-05-08T09:13:09.899Z,59.30
2023-05-08T09:14:09.707Z,71.87
2023-05-08T09:15:09.749Z,58.49
2023-05-08T09:16:09.734Z,61.07
2023-05-08T09:17:09.678Z,59.78
2023-05-08T09:18:09.716Z,61.07
2023-05-08T09:19:09.696Z,71.54
2023-05-08T09:20:09.656Z,59.94
2023-05-08T09:21:09.656Z,63.33
2023-05-08T09:22:09.642Z,63.33
2023-05-08T09:23:09.640Z,61.71
2023-05-08T09:24:09.614Z,59.14
2023-05-08T09:25:09.637Z,59.46
2023-05-08T09:26:09.590Z,60.91
2023-05-08T09:27:09.600Z,60.59
2023-05-08T09:28:09.599Z,58.33
2023-05-08T09:29:09.678Z,58.81
2023-05-08T09:30:09.549Z,58.17
2023-05-08T09:31:09.601Z,70.42
2023-05-08T09:32:09.672Z,60.75
2023-05-08T09:33:09.586Z,58.17
2023-05-08T09:34:09.535Z,60.91
2023-05-08T09:35:09.602Z,67.19
2023-05-08T09:36:09.583Z,61.39
2023-05-08T09:37:09.594Z,58.97
2023-05-08T09:38:09.509Z,58.97
2023-05-08T09:39:09.504Z,70.74
2023-05-08T09:40:09.467Z,56.72
2023-05-08T09:41:09.484Z,68.16
2023-05-08T09:42:09.503Z,60.10
2023-05-08T09:43:09.521Z,58.97
2023-05-08T09:44:09.454Z,61.55
2023-05-08T09:45:09.535Z,64.45
2023-05-08T09:46:09.466Z,59.30
2023-05-08T09:47:09.422Z,66.39
2023-05-08T09:48:09.468Z,61.39
2023-05-08T09:49:09.473Z,62.84
2023-05-08T09:50:09.475Z,62.84
2023-05-08T09:51:09.403Z,64.61
2023-05-08T09:52:09.458Z,62.36
2023-05-08T09:53:09.416Z,61.07
2023-05-08T09:54:09.384Z,59.94
2023-05-08T09:55:09.419Z,58.49
2023-05-08T09:56:09.386Z,74.12
2023-05-08T09:57:09.402Z,60.10
2023-05-08T09:58:09.370Z,60.42
2023-05-08T09:59:09.335Z,57.69
2023-05-08T10:00:09.320Z,60.91
2023-05-08T10:01:09.972Z,59.78
2023-05-08T10:02:09.372Z,61.55
2023-05-08T10:03:09.464Z,58.97
2023-05-08T10:04:09.390Z,62.36
2023-05-08T10:05:09.368Z,65.10
2023-05-08T10:06:09.297Z,61.07
2023-05-08T10:07:09.385Z,62.04
2023-05-08T10:08:09.283Z,58.01
2023-05-08T10:09:09.305Z,66.55
2023-05-08T10:10:09.275Z,60.42
2023-05-08T10:11:09.244Z,59.46
2023-05-08T10:12:09.265Z,60.75
2023-05-08T10:13:09.312Z,61.39
2023-05-08T10:14:09.269Z,59.62
2023-05-08T10:15:09.265Z,60.42
2023-05-08T10:16:09.358Z,59.62
2023-05-08T10:17:09.469Z,56.72
2023-05-08T10:18:09.261Z,59.30
2023-05-08T10:19:09.286Z,63.00
2023-05-08T10:20:09.181Z,61.07
2023-05-08T10:21:09.183Z,62.20
2023-05-08T10:22:10.250Z,68.80
2023-05-08T10:23:09.151Z,59.78
2023-05-08T10:24:09.185Z,68.48
2023-05-08T10:25:09.211Z,62.52
2023-05-08T10:26:09.166Z,55.91
2023-05-08T10:27:09.123Z,59.78
2023-05-08T10:28:09.114Z,61.87
2023-05-08T10:29:09.161Z,68.96
2023-05-08T10:30:09.098Z,66.06
2023-05-08T10:31:09.226Z,60.75
2023-05-08T10:32:09.101Z,61.71
2023-05-08T10:33:09.262Z,68.80
2023-05-08T10:34:09.097Z,63.97
2023-05-08T10:35:09.092Z,62.36
2023-05-08T10:36:09.052Z,69.29
2023-05-08T10:37:09.107Z,61.71
2023-05-08T10:38:09.032Z,70.74
2023-05-08T10:39:09.148Z,70.09
2023-05-08T10:40:16.415Z,59.46
2023-05-08T10:41:09.070Z,59.46
2023-05-08T10:42:09.032Z,62.20
2023-05-08T10:43:09.058Z,59.78
2023-05-08T10:44:09.012Z,57.52
2023-05-08T10:45:09.029Z,56.56
2023-05-08T10:46:09.075Z,57.85
2023-05-08T10:47:09.013Z,59.30
2023-05-08T10:48:09.088Z,57.04
2023-05-08T10:49:09.049Z,62.68
2023-05-08T10:50:08.985Z,60.26
2023-05-08T10:51:08.982Z,68.80
2023-05-08T10:52:09.026Z,64.45
2023-05-08T10:53:09.015Z,71.38
2023-05-08T10:54:08.965Z,59.14
2023-05-08T10:55:09.014Z,59.30
2023-05-08T10:56:08.925Z,69.93
2023-05-08T10:57:08.926Z,60.10
2023-05-08T10:58:08.954Z,59.94
2023-05-08T10:59:08.884Z,63.33
2023-05-08T11:00:08.881Z,69.29
2023-05-08T11:01:09.043Z,68.32
2023-05-08T11:02:09.029Z,61.07
2023-05-08T11:03:16.910Z,59.94
2023-05-08T11:04:10.086Z,61.39
2023-05-08T11:05:08.834Z,59.94
2023-05-08T11:06:08.838Z,59.46
2023-05-08T11:07:08.929Z,58.33
2023-05-08T11:08:08.798Z,61.71
2023-05-08T11:09:08.898Z,59.46
2023-05-08T11:10:08.841Z,59.30
2023-05-08T11:11:08.800Z,60.75
2023-05-08T11:12:08.881Z,58.81
2023-05-08T11:13:08.906Z,58.17
2023-05-08T11:14:08.776Z,62.20
2023-05-08T11:15:08.779Z,60.59
2023-05-08T11:16:08.824Z,57.69
2023-05-08T11:17:08.868Z,57.52
2023-05-08T11:18:08.799Z,56.56
2023-05-08T11:19:08.853Z,59.78
2023-05-08T11:20:08.750Z,59.78
2023-05-08T11:21:08.753Z,61.39
2023-05-08T11:22:08.753Z,58.49
2023-05-08T11:23:08.824Z,60.42
2023-05-08T11:24:08.761Z,62.20
2023-05-08T11:25:10.843Z,59.62
2023-05-08T11:26:08.727Z,65.42
2023-05-08T11:27:08.708Z,58.17
2023-05-08T11:28:08.689Z,59.62
2023-05-08T11:29:08.736Z,58.01
2023-05-08T11:30:08.708Z,60.91
2023-05-08T11:31:08.839Z,62.68
2023-05-08T11:32:08.695Z,57.85
2023-05-08T11:33:08.743Z,57.20
2023-05-08T11:34:08.693Z,58.65
2023-05-08T11:35:08.689Z,61.07
2023-05-08T11:36:08.614Z,59.30
2023-05-08T11:37:08.708Z,61.71
2023-05-08T11:38:08.664Z,68.80
2023-05-08T11:39:08.684Z,60.26
2023-05-08T11:40:08.595Z,60.91
2023-05-08T11:41:08.685Z,61.07
2023-05-08T11:42:08.608Z,71.70
2023-05-08T11:43:08.749Z,72.67
2023-05-08T11:44:09.721Z,65.90
2023-05-08T11:45:08.633Z,64.61
2023-05-08T11:46:08.590Z,71.22
2023-05-08T11:47:08.594Z,58.33
2023-05-08T11:48:08.628Z,61.87
2023-05-08T11:49:08.657Z,72.19
2023-05-08T11:50:08.516Z,57.20
2023-05-08T11:51:08.563Z,57.69
2023-05-08T11:52:08.518Z,58.17
2023-05-08T11:53:08.487Z,57.20
2023-05-08T11:54:08.481Z,62.84
2023-05-08T11:55:08.528Z,69.29
2023-05-08T11:56:08.470Z,60.91
2023-05-08T11:57:08.499Z,63.16
2023-05-08T11:58:08.450Z,57.69
2023-05-08T11:59:08.467Z,60.42
2023-05-08T12:00:08.494Z,58.01
2023-05-08T12:01:08.566Z,67.19
2023-05-08T12:02:09.788Z,61.23
2023-05-08T12:03:08.598Z,60.26
2023-05-08T12:04:08.671Z,59.62
2023-05-08T12:05:08.502Z,59.14
2023-05-08T12:06:08.386Z,61.71
2023-05-08T12:07:08.429Z,67.51
2023-05-08T12:08:08.406Z,63.81
2023-05-08T12:09:08.370Z,58.65
2023-05-08T12:10:08.380Z,60.42
2023-05-08T12:11:08.331Z,66.06
2023-05-08T12:12:08.366Z,65.10
2023-05-08T12:13:08.421Z,61.23
2023-05-08T12:14:08.358Z,60.26
2023-05-08T12:15:08.338Z,58.97
2023-05-08T12:16:08.348Z,58.65
2023-05-08T12:17:08.338Z,58.49
2023-05-08T12:18:08.379Z,59.78
2023-05-08T12:19:08.343Z,55.27
2023-05-08T12:20:08.332Z,57.52
2023-05-08T12:21:08.292Z,56.24
2023-05-08T12:22:08.323Z,62.20
2023-05-08T12:23:08.353Z,59.46
2023-05-08T12:24:08.396Z,58.81
2023-05-08T12:25:08.443Z,56.40
2023-05-08T12:26:08.285Z,70.58
2023-05-08T12:27:08.232Z,59.30
2023-05-08T12:28:08.229Z,58.97
2023-05-08T12:29:08.221Z,58.65
2023-05-08T12:30:08.207Z,60.26
2023-05-08T12:31:08.271Z,66.06
2023-05-08T12:32:08.227Z,60.59
2023-05-08T12:33:08.276Z,58.65
2023-05-08T12:34:08.175Z,58.17
2023-05-08T12:35:08.198Z,57.69
2023-05-08T12:36:08.181Z,57.04
2023-05-08T12:37:08.221Z,57.85
2023-05-08T12:38:08.159Z,54.46
2023-05-08T12:39:08.154Z,60.42
2023-05-08T12:40:08.151Z,60.42
2023-05-08T12:41:08.226Z,60.26
2023-05-08T12:42:08.124Z,58.01
2023-05-08T12:43:08.211Z,62.04
2023-05-08T12:44:08.146Z,60.42
2023-05-08T12:45:08.093Z,59.14
2023-05-08T12:46:09.151Z,63.00
2023-05-08T12:47:08.083Z,59.30
2023-05-08T12:48:08.210Z,58.49
2023-05-08T12:49:08.127Z,59.30
2023-05-08T12:50:08.121Z,69.13
2023-05-08T12:51:09.087Z,58.17
2023-05-08T12:52:08.048Z,58.65